createdAt,value
2022-11-28T00:02:22.067Z,4.74
2022-11-28T00:04:53.056Z,4.71
2022-11-28T00:07:22.141Z,4.71
2022-11-28T00:09:52.974Z,4.68
2022-11-28T00:12:21.811Z,4.66
2022-11-28T00:14:51.779Z,4.68
2022-11-28T00:17:20.644Z,4.67
2022-11-28T00:19:49.358Z,4.67
2022-11-28T00:22:18.167Z,4.67
2022-11-28T00:24:46.858Z,4.70
2022-11-28T00:27:15.614Z,4.71
2022-11-28T00:29:44.194Z,4.70
2022-11-28T00:32:14.698Z,4.67
2022-11-28T00:34:44.010Z,4.63
2022-11-28T00:37:12.750Z,4.66
2022-11-28T00:39:41.607Z,4.66
2022-11-28T00:42:10.289Z,4.64
2022-11-28T00:44:38.915Z,4.63
2022-11-28T00:47:07.860Z,4.64
2022-11-28T00:49:37.999Z,4.67
2022-11-28T00:52:06.969Z,4.66
2022-11-28T00:54:36.815Z,4.66
2022-11-28T00:57:05.667Z,4.66
2022-11-28T00:59:34.478Z,4.68
2022-11-28T01:02:03.549Z,4.66
2022-11-28T01:04:32.351Z,4.65
2022-11-28T01:07:02.645Z,4.65
2022-11-28T01:09:31.342Z,4.66
2022-11-28T01:12:00.002Z,4.65
2022-11-28T01:14:30.176Z,4.66
2022-11-28T01:16:58.901Z,4.66
2022-11-28T01:19:27.508Z,4.65
2022-11-28T01:21:56.266Z,4.65
2022-11-28T01:24:26.303Z,4.65
2022-11-28T01:26:55.173Z,4.64
2022-11-28T01:29:23.781Z,4.65
2022-11-28T01:31:52.647Z,4.63
2022-11-28T01:34:21.564Z,4.62
2022-11-28T01:36:50.146Z,4.60
2022-11-28T01:39:18.741Z,4.59
2022-11-28T01:41:49.037Z,4.59
2022-11-28T01:44:54.048Z,4.59
2022-11-28T01:47:24.944Z,4.58
2022-11-28T01:49:54.127Z,4.59
2022-11-28T01:52:23.323Z,4.58
2022-11-28T01:54:56.494Z,4.59
2022-11-28T01:57:27.555Z,4.58
2022-11-28T02:00:00.266Z,4.57
2022-11-28T02:02:33.775Z,4.58
2022-11-28T02:05:02.713Z,4.56
2022-11-28T02:07:31.499Z,4.59
2022-11-28T02:10:00.366Z,4.56
2022-11-28T02:12:46.534Z,4.57
2022-11-28T02:15:36.685Z,4.58
2022-11-28T02:18:24.195Z,4.57
2022-11-28T02:21:07.329Z,4.56
2022-11-28T02:23:53.081Z,4.55
2022-11-28T02:26:50.375Z,4.54
2022-11-28T02:29:46.539Z,4.55
2022-11-28T02:32:33.698Z,4.53
2022-11-28T02:35:09.740Z,4.55
2022-11-28T02:37:44.980Z,4.54
2022-11-28T02:40:20.531Z,4.49
2022-11-28T02:42:58.327Z,4.50
2022-11-28T02:45:33.791Z,4.49
2022-11-28T02:48:06.710Z,4.47
2022-11-28T02:50:42.130Z,4.46
2022-11-28T02:53:15.221Z,4.48
2022-11-28T02:55:45.569Z,4.49
2022-11-28T02:58:14.621Z,4.45
2022-11-28T03:00:44.901Z,4.45
2022-11-28T03:03:49.063Z,4.42
2022-11-28T03:06:30.010Z,4.39
2022-11-28T03:09:09.055Z,4.38
2022-11-28T03:11:47.612Z,4.36
2022-11-28T03:14:24.611Z,4.38
2022-11-28T03:16:56.996Z,4.39
2022-11-28T03:19:30.527Z,4.37
2022-11-28T03:22:05.673Z,4.33
2022-11-28T03:24:38.532Z,4.33
2022-11-28T03:27:11.484Z,4.30
2022-11-28T03:29:44.233Z,4.26
2022-11-28T03:32:14.678Z,4.26
2022-11-28T03:34:46.848Z,4.27
2022-11-28T03:37:19.212Z,4.27
2022-11-28T03:39:51.704Z,4.25
2022-11-28T03:42:23.250Z,4.27
2022-11-28T03:44:57.092Z,4.27
2022-11-28T03:47:27.534Z,4.28
2022-11-28T03:49:58.799Z,4.28
2022-11-28T03:52:32.915Z,4.29
2022-11-28T03:55:04.769Z,4.31
2022-11-28T03:57:37.263Z,4.31
2022-11-28T04:00:08.613Z,4.29
2022-11-28T04:02:50.163Z,4.29
2022-11-28T04:05:22.978Z,4.29
2022-11-28T04:07:56.233Z,4.28
2022-11-28T04:10:31.367Z,4.29
2022-11-28T04:13:02.932Z,4.29
2022-11-28T04:15:37.823Z,4.29
2022-11-28T04:18:14.026Z,4.28
2022-11-28T04:20:46.571Z,4.27
2022-11-28T04:23:19.464Z,4.29
2022-11-28T04:25:52.955Z,4.28
2022-11-28T04:28:24.641Z,4.27
2022-11-28T04:30:55.228Z,4.22
2022-11-28T04:33:25.267Z,4.20
2022-11-28T04:35:54.773Z,4.17
2022-11-28T04:38:25.572Z,4.19
2022-11-28T04:40:58.087Z,4.19
2022-11-28T04:43:29.426Z,4.21
2022-11-28T04:46:01.733Z,4.22
2022-11-28T04:48:34.280Z,4.20
2022-11-28T04:51:10.604Z,4.21
2022-11-28T04:53:45.053Z,4.23
2022-11-28T04:56:18.254Z,4.23
2022-11-28T04:58:49.708Z,4.23
2022-11-28T05:01:22.187Z,4.24
2022-11-28T05:03:51.219Z,4.24
2022-11-28T05:06:30.245Z,4.23
2022-11-28T05:09:00.389Z,4.25
2022-11-28T05:11:29.344Z,4.23
2022-11-28T05:13:57.961Z,4.23
2022-11-28T05:16:26.636Z,4.22
2022-11-28T05:18:55.553Z,4.22
2022-11-28T05:21:24.193Z,4.24
2022-11-28T05:23:53.007Z,4.22
2022-11-28T05:26:23.797Z,4.24
2022-11-28T05:28:52.925Z,4.25
2022-11-28T05:31:22.662Z,4.24
2022-11-28T05:33:51.471Z,4.27
2022-11-28T05:36:20.141Z,4.25
2022-11-28T05:38:49.327Z,4.26
2022-11-28T05:41:23.359Z,4.26
2022-11-28T05:43:52.171Z,4.24
2022-11-28T05:46:21.382Z,4.29
2022-11-28T05:48:50.191Z,4.28
2022-11-28T05:51:19.492Z,4.25
2022-11-28T05:53:48.155Z,4.25
2022-11-28T05:56:19.037Z,4.20
2022-11-28T05:58:49.139Z,4.20
2022-11-28T06:01:20.036Z,4.17
2022-11-28T06:03:49.396Z,4.16
2022-11-28T06:06:19.970Z,4.14
2022-11-28T06:08:50.023Z,4.17
2022-11-28T06:11:19.818Z,4.16
2022-11-28T06:13:50.652Z,4.16
2022-11-28T06:16:20.851Z,4.16
2022-11-28T06:18:49.776Z,4.14
2022-11-28T06:21:18.666Z,4.14
2022-11-28T06:23:48.768Z,4.16
2022-11-28T06:26:19.344Z,4.17
2022-11-28T06:28:49.838Z,4.17
2022-11-28T06:31:19.924Z,4.19
2022-11-28T06:33:49.063Z,4.14
2022-11-28T06:36:19.057Z,4.13
2022-11-28T06:38:48.092Z,4.14
2022-11-28T06:41:19.386Z,4.14
2022-11-28T06:43:49.450Z,4.14
2022-11-28T06:46:20.087Z,4.16
2022-11-28T06:48:49.964Z,4.15
2022-11-28T06:51:19.732Z,4.15
2022-11-28T06:53:48.880Z,4.14
2022-11-28T06:56:19.537Z,4.16
2022-11-28T06:58:54.068Z,4.17
2022-11-28T07:01:23.753Z,4.19
2022-11-28T07:03:54.431Z,4.20
2022-11-28T07:06:24.589Z,4.22
2022-11-28T07:08:53.732Z,4.24
2022-11-28T07:11:24.302Z,4.25
2022-11-28T07:13:54.833Z,4.28
2022-11-28T07:16:25.188Z,4.31
2022-11-28T07:18:54.244Z,4.30
2022-11-28T07:21:24.202Z,4.34
2022-11-28T07:23:53.480Z,4.35
2022-11-28T07:26:23.333Z,4.34
2022-11-28T07:28:56.108Z,4.36
2022-11-28T07:31:26.698Z,4.34
2022-11-28T07:33:55.855Z,4.34
2022-11-28T07:36:26.072Z,4.32
2022-11-28T07:38:56.189Z,4.32
2022-11-28T07:41:26.934Z,4.32
2022-11-28T07:43:58.896Z,4.34
2022-11-28T07:46:29.146Z,4.33
2022-11-28T07:48:57.880Z,4.33
2022-11-28T07:51:28.170Z,4.33
2022-11-28T07:53:57.342Z,4.33
2022-11-28T07:56:39.541Z,4.35
2022-11-28T07:59:18.266Z,4.36
2022-11-28T08:01:47.056Z,4.39
2022-11-28T08:04:16.076Z,4.41
2022-11-28T08:06:44.928Z,4.41
2022-11-28T08:09:13.980Z,4.42
2022-11-28T08:11:43.135Z,4.41
2022-11-28T08:14:11.945Z,4.47
2022-11-28T08:16:44.981Z,4.52
2022-11-28T08:19:14.161Z,4.56
2022-11-28T08:21:42.967Z,4.56
2022-11-28T08:24:12.980Z,4.57
2022-11-28T08:26:41.574Z,4.61
2022-11-28T08:29:11.527Z,4.61
2022-11-28T08:31:42.331Z,4.63
2022-11-28T08:34:12.803Z,4.64
2022-11-28T08:36:43.291Z,4.65
2022-11-28T08:39:28.011Z,4.66
2022-11-28T08:41:58.870Z,4.70
2022-11-28T08:44:31.117Z,4.73
2022-11-28T08:47:01.575Z,4.74
2022-11-28T08:49:30.234Z,4.74
2022-11-28T08:51:58.895Z,4.74
2022-11-28T08:54:27.548Z,4.75
2022-11-28T08:56:56.172Z,4.78
2022-11-28T08:59:24.812Z,4.83
2022-11-28T09:01:54.245Z,4.87
2022-11-28T09:04:24.923Z,4.89
2022-11-28T09:06:53.813Z,4.92
2022-11-28T09:09:22.912Z,4.99
2022-11-28T09:11:51.493Z,5.04
2022-11-28T09:14:21.304Z,5.08
2022-11-28T09:16:50.299Z,5.10
2022-11-28T09:19:19.305Z,5.14
2022-11-28T09:21:53.178Z,5.16
2022-11-28T09:24:23.274Z,5.19
2022-11-28T09:26:52.236Z,5.18
2022-11-28T09:29:20.954Z,5.22
2022-11-28T09:31:49.749Z,5.19
2022-11-28T09:34:18.527Z,5.21
2022-11-28T09:36:50.044Z,5.22
2022-11-28T09:39:19.038Z,5.22
2022-11-28T09:41:57.620Z,5.28
2022-11-28T09:44:31.567Z,5.36
2022-11-28T09:47:03.055Z,5.45
2022-11-28T09:49:40.321Z,5.49
2022-11-28T09:52:23.201Z,5.50
2022-11-28T09:54:58.529Z,5.50
2022-11-28T09:57:33.546Z,5.49
2022-11-28T10:00:02.107Z,5.48
2022-11-28T10:02:49.909Z,5.45
2022-11-28T10:05:24.312Z,5.47
2022-11-28T10:08:11.187Z,5.50
2022-11-28T10:10:48.778Z,5.49
2022-11-28T10:13:20.890Z,5.50
2022-11-28T10:15:56.324Z,5.51
2022-11-28T10:18:34.546Z,5.58
2022-11-28T10:21:06.133Z,5.64
2022-11-28T10:23:39.800Z,5.71
2022-11-28T10:26:12.506Z,5.76
2022-11-28T10:28:44.987Z,5.74
2022-11-28T10:31:17.595Z,5.71
2022-11-28T10:33:49.551Z,5.70
2022-11-28T10:36:23.966Z,5.70
2022-11-28T10:38:54.134Z,5.70
2022-11-28T10:41:25.751Z,5.73
2022-11-28T10:44:00.422Z,5.72
2022-11-28T10:46:42.068Z,5.74
2022-11-28T10:49:24.079Z,5.75
2022-11-28T10:52:01.174Z,5.78
2022-11-28T10:54:54.939Z,5.81
2022-11-28T10:57:27.899Z,5.84
2022-11-28T11:00:06.324Z,5.94
2022-11-28T11:02:38.457Z,5.99
2022-11-28T11:05:08.521Z,6.05
2022-11-28T11:07:37.715Z,6.04
2022-11-28T11:10:17.218Z,6.06
2022-11-28T11:12:46.132Z,6.05
2022-11-28T11:15:33.437Z,6.07
2022-11-28T11:18:06.137Z,6.07
2022-11-28T11:20:37.857Z,6.11
2022-11-28T11:23:17.022Z,6.15
2022-11-28T11:25:53.641Z,6.27
2022-11-28T11:28:30.413Z,6.35
2022-11-28T11:31:03.351Z,6.36
2022-11-28T11:33:36.810Z,6.29
2022-11-28T11:36:25.532Z,6.33
2022-11-28T11:39:05.299Z,6.29
2022-11-28T11:41:35.671Z,6.27
2022-11-28T11:44:29.639Z,6.27
2022-11-28T11:47:02.930Z,6.25
2022-11-28T11:49:33.817Z,6.27
2022-11-28T11:52:04.395Z,6.27
2022-11-28T11:54:33.380Z,6.27
2022-11-28T11:57:32.079Z,6.33
2022-11-28T11:59:55.524Z,6.33
2022-11-28T12:02:29.106Z,6.33
2022-11-28T12:05:03.228Z,6.34
2022-11-28T12:07:38.098Z,6.37
2022-11-28T12:10:07.627Z,6.37
2022-11-28T12:12:39.197Z,6.37
2022-11-28T12:15:17.404Z,6.41
2022-11-28T12:17:58.809Z,6.40
2022-11-28T12:20:48.966Z,6.38
2022-11-28T12:23:36.828Z,6.39
2022-11-28T12:26:12.281Z,6.46
2022-11-28T12:28:55.231Z,6.47
2022-11-28T12:31:31.585Z,6.49
2022-11-28T12:34:09.788Z,6.52
2022-11-28T12:36:41.351Z,6.52
2022-11-28T12:39:22.557Z,6.50
2022-11-28T12:42:26.904Z,6.51
2022-11-28T12:45:16.329Z,6.53
2022-11-28T12:47:52.372Z,6.50
2022-11-28T12:50:29.659Z,6.49
2022-11-28T12:53:12.590Z,6.49
2022-11-28T12:55:46.063Z,6.50
2022-11-28T12:58:19.621Z,6.51
2022-11-28T13:00:55.745Z,6.54
2022-11-28T13:03:35.533Z,6.54
2022-11-28T13:06:19.563Z,6.55
2022-11-28T13:09:04.676Z,6.58
2022-11-28T13:11:50.247Z,6.61
2022-11-28T13:14:21.054Z,6.61
2022-11-28T13:16:52.951Z,6.66
2022-11-28T13:19:30.974Z,6.69
2022-11-28T13:22:05.930Z,6.72
2022-11-28T13:24:35.160Z,6.73
2022-11-28T13:27:11.147Z,6.76
2022-11-28T13:29:50.248Z,6.79
2022-11-28T13:32:25.245Z,6.79
2022-11-28T13:34:54.036Z,6.78
2022-11-28T13:40:20.906Z,6.81
2022-11-28T13:43:04.042Z,6.84
2022-11-28T13:45:39.270Z,6.86
2022-11-28T13:49:13.873Z,6.86
2022-11-28T13:51:45.132Z,6.88
2022-11-28T13:54:37.260Z,6.90
2022-11-28T13:57:10.195Z,6.94
2022-11-28T13:59:39.563Z,6.95
2022-11-28T14:02:23.916Z,6.95
2022-11-28T14:04:52.961Z,6.95
2022-11-28T14:07:28.878Z,6.95
2022-11-28T14:10:23.050Z,6.96
2022-11-28T14:13:04.765Z,6.96
2022-11-28T14:15:38.473Z,6.97
2022-11-28T14:21:25.142Z,6.96
2022-11-28T14:24:00.626Z,6.98
2022-11-28T14:26:33.651Z,6.96
2022-11-28T14:29:03.808Z,6.96
2022-11-28T14:31:34.572Z,6.97
2022-11-28T14:34:05.403Z,6.97
2022-11-28T14:36:35.918Z,7.00
2022-11-28T14:39:34.331Z,6.99
2022-11-28T14:42:59.958Z,6.98
2022-11-28T14:45:45.200Z,6.99
2022-11-28T14:48:30.245Z,7.00
2022-11-28T14:51:02.284Z,6.97
2022-11-28T14:53:44.263Z,6.99
2022-11-28T14:56:29.072Z,6.97
2022-11-28T14:59:00.185Z,6.97
2022-11-28T15:01:48.102Z,6.96
2022-11-28T15:04:42.937Z,6.96
2022-11-28T15:07:23.087Z,6.95
2022-11-28T15:10:04.108Z,6.97
2022-11-28T15:12:43.109Z,6.95
2022-11-28T15:15:14.548Z,6.95
2022-11-28T15:17:44.152Z,6.97
2022-11-28T15:20:20.534Z,6.97
2022-11-28T15:22:49.553Z,6.96
2022-11-28T15:25:22.971Z,6.97
2022-11-28T15:27:55.403Z,6.98
2022-11-28T15:30:26.580Z,6.99
2022-11-28T15:32:58.267Z,6.96
2022-11-28T15:35:27.130Z,6.96
2022-11-28T15:37:58.378Z,7.00
2022-11-28T15:40:29.255Z,6.89
2022-11-28T15:43:00.187Z,6.85
2022-11-28T15:45:31.404Z,6.88
2022-11-28T15:48:00.743Z,6.88
2022-11-28T15:50:31.594Z,6.86
2022-11-28T15:53:02.408Z,6.82
2022-11-28T15:55:33.634Z,6.85
2022-11-28T15:58:13.945Z,6.84
2022-11-28T16:00:45.314Z,6.84
2022-11-28T16:03:16.780Z,6.88
2022-11-28T16:05:46.254Z,6.89
2022-11-28T16:08:22.206Z,6.89
2022-11-28T16:10:51.073Z,6.83
2022-11-28T16:13:24.690Z,6.84
2022-11-28T16:15:55.938Z,6.85
2022-11-28T16:18:24.743Z,6.85
2022-11-28T16:20:53.508Z,6.85
2022-11-28T16:23:27.211Z,6.82
2022-11-28T16:26:03.408Z,6.83
2022-11-28T16:28:34.911Z,6.85
2022-11-28T16:31:04.029Z,6.85
2022-11-28T16:33:40.037Z,6.84
2022-11-28T16:36:17.973Z,6.81
2022-11-28T16:38:48.210Z,6.81
2022-11-28T16:41:18.811Z,6.83
2022-11-28T16:43:53.534Z,6.84
2022-11-28T16:46:23.789Z,6.86
2022-11-28T16:48:56.358Z,6.84
2022-11-28T16:51:34.048Z,6.78
2022-11-28T16:54:30.345Z,6.78
2022-11-28T16:57:10.749Z,6.77
2022-11-28T16:59:41.357Z,6.75
2022-11-28T17:02:18.847Z,6.73
2022-11-28T17:04:48.578Z,6.72
2022-11-28T17:07:19.195Z,6.70
2022-11-28T17:09:49.061Z,6.74
2022-11-28T17:12:23.362Z,6.72
2022-11-28T17:14:53.628Z,6.69
2022-11-28T17:17:24.199Z,6.69
2022-11-28T17:19:53.336Z,6.71
2022-11-28T17:22:23.245Z,6.71
2022-11-28T17:24:52.550Z,6.73
2022-11-28T17:27:21.365Z,6.76
2022-11-28T17:29:50.000Z,6.77
2022-11-28T17:32:20.114Z,6.79
2022-11-28T17:34:48.866Z,6.80
2022-11-28T17:37:17.689Z,6.78
2022-11-28T17:40:00.309Z,6.76
2022-11-28T17:42:29.094Z,6.79
2022-11-28T17:44:57.827Z,6.80
2022-11-28T17:47:28.110Z,6.82
2022-11-28T17:49:57.391Z,6.81
2022-11-28T17:52:30.136Z,6.78
2022-11-28T17:55:06.825Z,6.77
2022-11-28T17:57:37.078Z,6.78
2022-11-28T18:00:07.422Z,6.79
2022-11-28T18:02:44.222Z,6.79
2022-11-28T18:05:12.889Z,6.78
2022-11-28T18:07:42.220Z,6.75
2022-11-28T18:10:13.399Z,6.75
2022-11-28T18:12:42.503Z,6.76
2022-11-28T18:15:11.511Z,6.73
2022-11-28T18:17:40.584Z,6.72
2022-11-28T18:20:12.076Z,6.73
2022-11-28T18:22:40.968Z,6.74
2022-11-28T18:25:10.871Z,6.73
2022-11-28T18:27:39.834Z,6.72
2022-11-28T18:30:10.036Z,6.74
2022-11-28T18:32:38.906Z,6.72
2022-11-28T18:35:08.971Z,6.73
2022-11-28T18:37:40.804Z,6.74
2022-11-28T18:40:10.392Z,6.72
2022-11-28T18:42:39.337Z,6.71
2022-11-28T18:45:09.512Z,6.68
2022-11-28T18:47:38.115Z,6.69
2022-11-28T18:50:08.760Z,6.70
2022-11-28T18:52:38.779Z,6.67
2022-11-28T18:55:08.509Z,6.65
2022-11-28T18:57:38.106Z,6.64
2022-11-28T19:00:08.164Z,6.63
2022-11-28T19:02:37.518Z,6.61
2022-11-28T19:05:07.004Z,6.63
2022-11-28T19:07:35.812Z,6.66
2022-11-28T19:10:07.880Z,6.68
2022-11-28T19:12:37.898Z,6.68
2022-11-28T19:15:07.402Z,6.69
2022-11-28T19:17:36.084Z,6.68
2022-11-28T19:20:06.362Z,6.65
2022-11-28T19:22:36.541Z,6.61
2022-11-28T19:25:08.239Z,6.59
2022-11-28T19:27:36.909Z,6.59
2022-11-28T19:30:07.065Z,6.59
2022-11-28T19:32:36.399Z,6.58
2022-11-28T19:35:05.955Z,6.59
2022-11-28T19:37:34.711Z,6.63
2022-11-28T19:40:03.673Z,6.64
2022-11-28T19:42:35.300Z,6.62
2022-11-28T19:45:04.129Z,6.62
2022-11-28T19:47:33.369Z,6.60
2022-11-28T19:50:02.216Z,6.63
2022-11-28T19:52:31.187Z,6.63
2022-11-28T19:55:00.900Z,6.63
2022-11-28T19:57:29.933Z,6.61
2022-11-28T20:00:00.470Z,6.59
2022-11-28T20:02:29.320Z,6.52
2022-11-28T20:04:58.435Z,6.52
2022-11-28T20:07:28.499Z,6.47
2022-11-28T20:09:57.185Z,6.44
2022-11-28T20:12:26.116Z,6.42
2022-11-28T20:14:54.778Z,6.41
2022-11-28T20:17:25.303Z,6.38
2022-11-28T20:19:53.921Z,6.40
2022-11-28T20:22:24.658Z,6.42
2022-11-28T20:24:53.610Z,6.43
2022-11-28T20:27:22.528Z,6.43
2022-11-28T20:29:51.491Z,6.42
2022-11-28T20:32:20.144Z,6.41
2022-11-28T20:34:50.450Z,6.42
2022-11-28T20:37:19.463Z,6.41
2022-11-28T20:39:48.517Z,6.40
2022-11-28T20:42:17.638Z,6.41
2022-11-28T20:44:46.496Z,6.41
2022-11-28T20:47:15.153Z,6.40
2022-11-28T20:49:44.174Z,6.40
2022-11-28T20:52:14.383Z,6.43
2022-11-28T20:54:43.036Z,6.47
2022-11-28T20:57:21.467Z,6.49
2022-11-28T20:59:51.175Z,6.51
2022-11-28T21:02:19.926Z,6.48
2022-11-28T21:04:48.829Z,6.45
2022-11-28T21:07:19.256Z,6.46
2022-11-28T21:09:48.173Z,6.50
2022-11-28T21:12:20.912Z,6.50
2022-11-28T21:14:51.896Z,6.52
2022-11-28T21:17:20.714Z,6.54
2022-11-28T21:19:49.507Z,6.53
2022-11-28T21:22:19.642Z,6.54
2022-11-28T21:24:51.244Z,6.54
2022-11-28T21:27:19.926Z,6.51
2022-11-28T21:29:52.016Z,6.52
2022-11-28T21:32:20.999Z,6.51
2022-11-28T21:34:49.947Z,6.52
2022-11-28T21:37:20.060Z,6.53
2022-11-28T21:39:48.819Z,6.53
2022-11-28T21:42:20.707Z,6.51
2022-11-28T21:44:49.612Z,6.49
2022-11-28T21:47:18.587Z,6.48
2022-11-28T21:49:47.426Z,6.48
2022-11-28T21:52:19.169Z,6.49
2022-11-28T21:54:50.523Z,6.52
2022-11-28T21:57:19.380Z,6.50
2022-11-28T21:59:48.332Z,6.49
2022-11-28T22:02:18.010Z,6.48
2022-11-28T22:04:47.095Z,6.47
2022-11-28T22:07:16.148Z,6.47
2022-11-28T22:09:45.003Z,6.48
2022-11-28T22:12:15.522Z,6.51
2022-11-28T22:14:44.221Z,6.48
2022-11-28T22:17:12.867Z,6.44
2022-11-28T22:19:41.559Z,6.43
2022-11-28T22:22:10.384Z,6.43
2022-11-28T22:24:41.287Z,6.43
2022-11-28T22:27:10.925Z,6.41
2022-11-28T22:29:41.054Z,6.40
2022-11-28T22:32:10.364Z,6.40
2022-11-28T22:34:40.216Z,6.38
2022-11-28T22:37:09.680Z,6.38
2022-11-28T22:39:39.666Z,6.38
2022-11-28T22:42:08.672Z,6.36
2022-11-28T22:44:37.285Z,6.35
2022-11-28T22:47:07.445Z,6.36
2022-11-28T22:49:36.378Z,6.34
2022-11-28T22:52:05.290Z,6.33
2022-11-28T22:54:34.477Z,6.30
2022-11-28T22:57:03.305Z,6.32
2022-11-28T22:59:35.113Z,6.32
2022-11-28T23:02:04.081Z,6.30
2022-11-28T23:04:34.244Z,6.28
2022-11-28T23:07:05.201Z,6.26
2022-11-28T23:09:34.210Z,6.27
2022-11-28T23:12:02.950Z,6.26
2022-11-28T23:14:32.998Z,6.29
2022-11-28T23:17:01.704Z,6.29
2022-11-28T23:19:33.855Z,6.27
2022-11-28T23:22:02.544Z,6.27
2022-11-28T23:24:31.270Z,6.28
2022-11-28T23:27:00.360Z,6.29
2022-11-28T23:29:30.040Z,6.28
2022-11-28T23:31:59.553Z,6.28
2022-11-28T23:34:29.874Z,6.27
2022-11-28T23:37:02.158Z,6.27
2022-11-28T23:39:30.850Z,6.25
2022-11-28T23:42:06.516Z,6.25
2022-11-28T23:44:35.124Z,6.26
2022-11-28T23:47:04.122Z,6.25
2022-11-28T23:49:32.824Z,6.24
2022-11-28T23:52:02.982Z,6.25
2022-11-28T23:54:31.643Z,6.25
2022-11-28T23:57:00.413Z,6.25
2022-11-28T23:59:29.157Z,6.25
